Time;durP1;ratioP1;P1;durP2;ratioP2;P2;SDS_P1;SDS_P2;PMS_P1;PMS_P2;Temp;Humidity;BMP_temperature;BMP_pressure;BME280_temperature;BME280_humidity;BME280_pressure;Samples;Min_cycle;Max_cycle;Signal;HPM_P1;HPM_P2
2022/11/16 00:01:13;;;;;;;10.35;9.10;;;;;;;9.15;100.00;94739.81;5083433;28;20032;-58
2022/11/16 00:03:39;;;;;;;11.68;9.88;;;;;;;9.14;100.00;94746.84;5080214;28;20028;-57
2022/11/16 00:06:06;;;;;;;10.18;9.27;;;;;;;9.13;100.00;94747.84;5081977;28;20520;-56
2022/11/16 00:08:34;;;;;;;10.80;9.90;;;;;;;9.12;100.00;94751.44;5082726;28;20490;-57
2022/11/16 00:11:09;;;;;;;10.93;9.85;;;;;;;9.14;100.00;94765.22;5081700;28;20028;-58
2022/11/16 00:13:35;;;;;;;10.30;9.40;;;;;;;9.13;100.00;94776.72;5081885;28;20059;-66
2022/11/16 00:16:02;;;;;;;12.45;9.07;;;;;;;9.12;100.00;94780.31;5077186;28;20036;-51
2022/11/16 00:18:28;;;;;;;8.55;7.82;;;;;;;9.19;100.00;94782.34;5077598;28;20060;-57
2022/11/16 00:20:53;;;;;;;10.23;9.18;;;;;;;9.19;100.00;94779.72;5079641;28;20055;-58
2022/11/16 00:23:19;;;;;;;10.65;9.70;;;;;;;9.16;100.00;94802.66;5079577;28;20513;-58
2022/11/16 00:25:44;;;;;;;10.70;9.57;;;;;;;9.25;100.00;94810.59;5083189;28;20024;-58
2022/11/16 00:28:10;;;;;;;9.25;8.35;;;;;;;9.36;100.00;94812.94;5079058;28;20030;-57
2022/11/16 00:30:36;;;;;;;6.10;5.60;;;;;;;9.35;100.00;94826.25;5083583;28;20027;-58
2022/11/16 00:33:03;;;;;;;5.68;5.03;;;;;;;9.31;100.00;94857.25;5080449;28;20508;-67
2022/11/16 00:35:28;;;;;;;7.60;6.30;;;;;;;9.28;100.00;94874.16;5079622;28;20033;-58
2022/11/16 00:37:54;;;;;;;6.30;5.60;;;;;;;9.23;100.00;94886.09;5074329;28;20039;-60
2022/11/16 00:40:19;;;;;;;4.03;3.72;;;;;;;9.24;100.00;94898.25;5082621;28;20029;-59
2022/11/16 00:42:44;;;;;;;2.70;2.50;;;;;;;9.37;100.00;94909.16;5076423;28;20081;-59
2022/11/16 00:45:10;;;;;;;2.10;2.00;;;;;;;9.40;100.00;94911.50;5077709;28;20024;-60
2022/11/16 00:47:35;;;;;;;1.92;1.83;;;;;;;9.40;100.00;94926.44;5082278;28;20549;-60
2022/11/16 00:50:01;;;;;;;2.70;2.20;;;;;;;9.38;100.00;94936.28;5083843;28;20028;-60
2022/11/16 00:52:26;;;;;;;3.13;2.78;;;;;;;9.34;100.00;94943.63;5084091;28;20060;-58
2022/11/16 00:54:51;;;;;;;4.20;2.47;;;;;;;9.32;100.00;94949.06;5084591;28;20016;-67
2022/11/16 00:57:17;;;;;;;2.42;2.22;;;;;;;9.35;100.00;94947.91;5076592;28;20047;-59
2022/11/16 00:59:42;;;;;;;2.60;2.40;;;;;;;9.32;100.00;94945.59;5078627;28;20042;-59
2022/11/16 01:02:08;;;;;;;2.30;2.17;;;;;;;9.35;100.00;94944.47;5084529;28;20493;-58
2022/11/16 01:04:33;;;;;;;2.80;2.60;;;;;;;9.28;100.00;94939.84;5078573;28;20621;-59
2022/11/16 01:06:58;;;;;;;2.35;2.13;;;;;;;9.32;100.00;94942.97;5086243;28;20106;-58
2022/11/16 01:09:24;;;;;;;2.05;1.70;;;;;;;9.38;100.00;94934.47;5080957;28;20024;-59
2022/11/16 01:12:07;;;;;;;1.50;1.50;;;;;;;9.31;100.00;94936.06;5077444;28;20032;-57
2022/11/16 01:14:33;;;;;;;1.50;1.40;;;;;;;9.28;100.00;94949.50;5084285;28;20062;-56
2022/11/16 01:16:59;;;;;;;1.70;1.60;;;;;;;9.21;100.00;94961.59;5083739;28;20028;-60
2022/11/16 01:19:24;;;;;;;2.00;1.83;;;;;;;9.16;100.00;94964.69;5080590;28;20669;-60
2022/11/16 01:21:50;;;;;;;2.22;1.77;;;;;;;9.09;100.00;94967.06;5087032;28;20447;-60
2022/11/16 01:24:15;;;;;;;3.70;1.70;;;;;;;9.07;100.00;94955.91;5083551;28;20043;-60
2022/11/16 01:26:40;;;;;;;3.25;1.98;;;;;;;9.07;100.00;94960.34;5080256;28;20085;-60
2022/11/16 01:29:06;;;;;;;5.60;1.92;;;;;;;9.07;100.00;94957.72;5082337;28;20032;-60
2022/11/16 01:31:31;;;;;;;4.70;1.80;;;;;;;9.03;100.00;94963.25;5086262;28;20055;-56
2022/11/16 01:33:56;;;;;;;4.82;2.20;;;;;;;9.01;100.00;94959.94;5085398;28;20047;-59
2022/11/16 01:36:22;;;;;;;3.60;1.92;;;;;;;8.97;100.00;94958.59;5081220;28;20024;-55
2022/11/16 01:38:47;;;;;;;2.03;1.90;;;;;;;8.96;100.00;94962.19;5083193;28;20032;-55
2022/11/16 01:41:21;;;;;;;1.85;1.55;;;;;;;8.95;100.00;94959.72;5077607;28;20059;-54
2022/11/16 01:43:59;;;;;;;3.83;2.08;;;;;;;8.94;100.00;94958.06;5079688;28;20036;-54
2022/11/16 01:46:26;;;;;;;2.08;1.80;;;;;;;8.93;100.00;94965.13;5081348;28;20124;-55
2022/11/16 01:49:05;;;;;;;2.08;1.92;;;;;;;8.89;100.00;94966.41;5076287;28;20074;-53
2022/11/16 01:51:33;;;;;;;2.33;1.90;;;;;;;8.92;100.00;94963.47;5074498;28;20032;-59
2022/11/16 01:54:01;;;;;;;2.17;2.00;;;;;;;8.95;100.00;94967.59;5078847;28;20143;-55
2022/11/16 01:56:30;;;;;;;2.50;2.30;;;;;;;8.89;100.00;94964.59;5082871;28;21072;-54
2022/11/16 01:58:56;;;;;;;3.15;2.25;;;;;;;8.87;100.00;94966.53;5085521;28;20091;-56
2022/11/16 02:01:22;;;;;;;2.40;2.22;;;;;;;8.86;100.00;94964.09;5084736;28;20019;-55
2022/11/16 02:03:47;;;;;;;3.72;2.05;;;;;;;8.84;100.00;94969.47;5082212;28;20050;-55
2022/11/16 02:06:18;;;;;;;2.00;1.90;;;;;;;8.84;100.00;94961.59;5080131;28;20493;-54
2022/11/16 02:12:42;;;;;;;3.80;1.92;;;;;;;8.85;100.00;94958.00;5072677;28;20051;-60
2022/11/16 02:15:40;;;;;;;1.60;1.50;;;;;;;8.74;100.00;94945.09;5079305;28;20047;-54
2022/11/16 02:18:35;;;;;;;1.13;1.13;;;;;;;8.66;100.00;94932.72;5080634;28;20573;-53
2022/11/16 02:21:23;;;;;;;2.08;1.50;;;;;;;8.63;100.00;94933.03;5083432;28;20050;-54
2022/11/16 02:24:14;;;;;;;1.92;1.00;;;;;;;8.59;100.00;94915.91;5078698;28;20594;-54
2022/11/16 02:26:58;;;;;;;0.90;0.90;;;;;;;8.53;100.00;94893.72;5085834;28;20454;-55
2022/11/16 02:29:26;;;;;;;1.00;1.00;;;;;;;8.48;100.00;94877.56;5084761;28;20396;-55
2022/11/16 02:32:18;;;;;;;0.93;0.93;;;;;;;8.42;100.00;94867.66;5084101;28;20043;-67
2022/11/16 02:34:49;;;;;;;0.90;0.90;;;;;;;8.38;100.00;94871.56;5080050;28;20566;-60
2022/11/16 02:37:18;;;;;;;2.50;0.85;;;;;;;8.36;100.00;94863.03;5081983;28;20051;-60
2022/11/16 02:39:47;;;;;;;0.90;0.90;;;;;;;8.31;100.00;94832.00;5081546;28;20580;-60
2022/11/16 02:42:18;;;;;;;2.30;0.88;;;;;;;8.34;100.00;94807.28;5076393;28;20027;-60
2022/11/16 02:44:48;;;;;;;1.13;1.02;;;;;;;8.26;100.00;94808.03;5088139;28;20489;-60
2022/11/16 02:47:20;;;;;;;2.33;1.00;;;;;;;8.19;100.00;94820.91;5081856;28;20036;-60
2022/11/16 02:49:51;;;;;;;4.32;3.65;;;;;;;8.13;100.00;94830.16;5084193;28;20025;-59
2022/11/16 02:52:17;;;;;;;0.90;0.90;;;;;;;8.37;100.00;94834.00;5087415;28;20139;-59
2022/11/16 02:54:42;;;;;;;1.63;1.40;;;;;;;8.72;100.00;94847.31;5084540;28;20525;-60
2022/11/16 02:57:08;;;;;;;3.25;1.52;;;;;;;8.52;100.00;94847.47;5083087;28;20028;-60
2022/11/16 02:59:43;;;;;;;1.30;1.25;;;;;;;8.30;100.00;94846.91;5079973;28;20032;-60
2022/11/16 03:02:33;;;;;;;1.33;1.20;;;;;;;8.20;100.00;94848.75;5079101;28;20386;-59
2022/11/16 03:05:14;;;;;;;1.20;1.20;;;;;;;8.13;100.00;94847.72;5077247;28;20501;-60
2022/11/16 03:07:56;;;;;;;1.20;1.20;;;;;;;8.12;100.00;94844.25;5077587;28;20642;-53
2022/11/16 03:13:09;;;;;;;2.03;1.10;;;;;;;8.15;100.00;94835.28;5081246;28;20071;-58
2022/11/16 03:15:37;;;;;;;1.65;1.30;;;;;;;8.11;100.00;94829.50;5091245;28;20028;-58
2022/11/16 03:18:06;;;;;;;1.27;1.17;;;;;;;8.00;100.00;94838.41;5085451;28;20052;-58
2022/11/16 03:20:33;;;;;;;2.92;1.20;;;;;;;7.94;100.00;94836.38;5079681;28;20028;-58
2022/11/16 03:23:02;;;;;;;3.20;1.00;;;;;;;7.89;100.00;94833.38;5088539;28;20072;-58
2022/11/16 03:25:38;;;;;;;0.90;0.90;;;;;;;7.81;100.00;94843.72;5078919;28;20028;-58
2022/11/16 03:28:20;;;;;;;1.55;0.90;;;;;;;7.77;100.00;94855.47;5083836;28;20025;-68
2022/11/16 03:31:01;;;;;;;1.08;1.08;;;;;;;7.69;100.00;94857.03;5086498;28;20073;-66
2022/11/16 03:33:35;;;;;;;1.20;1.20;;;;;;;7.68;100.00;94849.31;5084882;28;20024;-67
2022/11/16 03:36:11;;;;;;;0.93;0.90;;;;;;;7.64;100.00;94851.41;5088087;28;20024;-67
2022/11/16 03:38:39;;;;;;;0.90;0.90;;;;;;;7.63;100.00;94848.94;5079266;28;20028;-67
2022/11/16 03:41:08;;;;;;;0.98;0.98;;;;;;;7.56;100.00;94851.28;5075632;28;20037;-67
2022/11/16 03:43:35;;;;;;;1.00;1.00;;;;;;;7.42;100.00;94853.44;5074245;28;20016;-67
2022/11/16 03:46:01;;;;;;;1.35;1.08;;;;;;;7.41;100.00;94853.56;5088682;28;20019;-67
2022/11/16 03:48:38;;;;;;;1.00;1.00;;;;;;;7.30;100.00;94851.94;5093979;28;20028;-59
2022/11/16 03:51:05;;;;;;;3.03;1.33;;;;;;;7.28;100.00;94853.88;5080016;28;20028;-54
2022/11/16 03:53:30;;;;;;;1.25;1.17;;;;;;;7.24;100.00;94853.31;5086462;28;20504;-55
2022/11/16 03:55:56;;;;;;;1.25;1.20;;;;;;;7.25;100.00;94857.59;5069045;28;20036;-55
2022/11/16 03:58:21;;;;;;;1.08;1.00;;;;;;;7.26;100.00;94847.97;5083068;28;20036;-52
2022/11/16 04:00:47;;;;;;;1.17;1.17;;;;;;;7.19;100.00;94857.34;5075836;28;20390;-54
2022/11/16 04:03:12;;;;;;;1.58;1.13;;;;;;;7.11;100.00;94850.22;5084887;28;20103;-55
2022/11/16 04:25:29;;;;;;;3.78;1.70;;;;;;;6.51;100.00;94841.56;5087492;28;20135;-67
2022/11/16 04:28:15;;;;;;;2.20;2.10;;;;;;;6.46;100.00;94843.78;5082114;28;20035;-59
2022/11/16 04:38:59;;;;;;;7.00;1.60;;;;;;;6.33;100.00;94844.06;5098248;28;20055;-53
2022/11/16 04:44:08;;;;;;;1.77;1.70;;;;;;;6.20;100.00;94856.56;5085644;28;20588;-50
2022/11/16 04:49:18;;;;;;;1.73;1.63;;;;;;;6.10;100.00;94841.69;5079550;28;20094;-59
2022/11/16 04:51:43;;;;;;;2.30;1.60;;;;;;;6.04;100.00;94844.00;5064173;28;20036;-58
2022/11/16 04:54:09;;;;;;;1.45;1.40;;;;;;;5.99;100.00;94834.75;5085686;28;20028;-59
2022/11/16 04:56:34;;;;;;;1.33;1.30;;;;;;;5.97;100.00;94831.47;5084469;28;20473;-59
2022/11/16 04:59:00;;;;;;;1.90;1.77;;;;;;;5.98;100.00;94830.50;5083880;28;20064;-59
2022/11/16 05:04:09;;;;;;;3.65;1.83;;;;;;;5.93;100.00;94832.69;5091111;28;20485;-58
2022/11/16 05:06:34;;;;;;;2.25;1.75;;;;;;;5.87;100.00;94830.63;5071272;28;20119;-55
2022/11/16 05:09:00;;;;;;;1.70;1.60;;;;;;;5.72;100.00;94843.22;5070912;28;20024;-54
2022/11/16 05:11:25;;;;;;;1.95;1.50;;;;;;;5.70;100.00;94837.28;5070163;28;20493;-53
2022/11/16 05:13:51;;;;;;;4.10;1.80;;;;;;;5.78;100.00;94831.41;5077269;28;20477;-52
2022/11/16 05:16:16;;;;;;;20.02;18.23;;;;;;;5.75;100.00;94832.53;5080078;28;20024;-53
2022/11/16 05:18:41;;;;;;;7.32;6.72;;;;;;;5.68;100.00;94827.00;5077158;28;20402;-50
2022/11/16 05:21:07;;;;;;;4.28;3.58;;;;;;;5.59;100.00;94820.78;5075104;28;20037;-53
2022/11/16 05:26:16;;;;;;;4.10;3.70;;;;;;;5.50;100.00;94823.38;5070529;28;20078;-66
2022/11/16 05:28:41;;;;;;;6.72;6.13;;;;;;;5.50;100.00;94818.13;5093377;28;20019;-53
2022/11/16 05:31:07;;;;;;;7.72;7.03;;;;;;;5.47;100.00;94831.47;5071540;28;20049;-52
2022/11/16 05:33:32;;;;;;;27.20;23.98;;;;;;;5.38;100.00;94828.66;5089546;28;20059;-54
2022/11/16 05:35:57;;;;;;;14.73;12.60;;;;;;;5.39;100.00;94842.56;5071022;28;20485;-54
2022/11/16 05:38:23;;;;;;;13.00;9.30;;;;;;;5.41;100.00;94843.25;5070456;28;20074;-54
2022/11/16 05:40:48;;;;;;;6.90;6.30;;;;;;;5.32;100.00;94850.06;5084890;28;20031;-53
2022/11/16 05:43:13;;;;;;;5.80;5.30;;;;;;;5.27;100.00;94847.03;5086895;28;20394;-58
2022/11/16 05:45:39;;;;;;;5.15;4.75;;;;;;;5.26;100.00;94853.22;5089822;28;20060;-59
2022/11/16 05:48:04;;;;;;;6.90;4.65;;;;;;;5.23;100.00;94843.84;5085409;28;20021;-58
2022/11/16 05:50:29;;;;;;;5.05;4.65;;;;;;;5.22;100.00;94849.22;5087664;28;20052;-58
2022/11/16 05:52:55;;;;;;;5.93;5.40;;;;;;;5.23;100.00;94851.69;5079608;28;20150;-59
2022/11/16 05:55:20;;;;;;;7.82;6.13;;;;;;;5.26;100.00;94856.63;5083901;28;20032;-59
2022/11/16 05:57:45;;;;;;;6.85;4.97;;;;;;;5.27;100.00;94858.28;5071146;28;20032;-60
2022/11/16 06:00:11;;;;;;;5.57;5.03;;;;;;;5.36;100.00;94841.03;5070630;28;20115;-60
2022/11/16 06:02:37;;;;;;;4.95;4.65;;;;;;;5.33;100.00;94832.66;5078587;28;20055;-59
2022/11/16 06:05:02;;;;;;;4.25;3.95;;;;;;;5.25;100.00;94828.06;5083161;28;20662;-59
2022/11/16 06:07:27;;;;;;;6.68;4.13;;;;;;;5.20;100.00;94825.84;5083515;28;20035;-60
2022/11/16 06:09:53;;;;;;;3.10;2.90;;;;;;;5.12;100.00;94821.28;5089165;28;20020;-60
2022/11/16 06:12:18;;;;;;;3.03;2.83;;;;;;;5.09;100.00;94824.16;5088969;28;20028;-60
2022/11/16 06:14:44;;;;;;;3.95;3.15;;;;;;;5.05;100.00;94822.75;5090909;28;20093;-60
2022/11/16 06:17:13;;;;;;;3.80;3.47;;;;;;;5.07;100.00;94826.06;5080882;28;20020;-60
2022/11/16 06:19:39;;;;;;;3.50;3.20;;;;;;;5.13;100.00;94819.50;5081072;28;20032;-60
2022/11/16 06:22:04;;;;;;;3.55;3.28;;;;;;;5.05;100.00;94837.56;5081388;28;20516;-58
2022/11/16 06:24:29;;;;;;;3.08;2.88;;;;;;;5.01;100.00;94842.22;5086114;28;20106;-60
2022/11/16 06:26:55;;;;;;;3.03;2.80;;;;;;;5.01;100.00;94837.03;5086376;28;20103;-59
2022/11/16 06:29:20;;;;;;;3.30;3.10;;;;;;;5.01;100.00;94834.41;5077784;28;20043;-59
2022/11/16 06:31:45;;;;;;;3.13;2.92;;;;;;;4.99;100.00;94838.94;5081800;28;20075;-59
2022/11/16 06:34:11;;;;;;;3.80;3.50;;;;;;;4.99;100.00;94844.16;5088851;28;20028;-58
2022/11/16 06:36:36;;;;;;;8.32;7.57;;;;;;;4.98;100.00;94845.09;5078779;28;20064;-58
2022/11/16 06:39:02;;;;;;;12.70;9.60;;;;;;;4.94;100.00;94846.28;5081076;28;20025;-59
2022/11/16 06:41:27;;;;;;;12.63;6.53;;;;;;;4.97;100.00;94838.22;5092358;28;20028;-68
2022/11/16 06:43:53;;;;;;;35.75;31.90;;;;;;;4.96;100.00;94837.41;5074524;28;20021;-54
2022/11/16 06:46:18;;;;;;;12.70;11.35;;;;;;;4.99;100.00;94837.13;5077801;28;20043;-60
2022/11/16 06:48:43;;;;;;;8.15;7.35;;;;;;;4.93;100.00;94844.63;5079715;28;20551;-59
2022/11/16 06:51:09;;;;;;;11.10;8.90;;;;;;;4.91;100.00;94836.97;5074737;28;20020;-59
2022/11/16 06:53:34;;;;;;;11.68;9.68;;;;;;;4.87;100.00;94833.78;5076027;28;20040;-60
2022/11/16 06:56:02;;;;;;;11.52;7.97;;;;;;;4.82;100.00;94837.72;5085863;28;20496;-59
2022/11/16 06:58:30;;;;;;;8.23;6.70;;;;;;;4.77;100.00;94847.69;5077756;28;20031;-60
2022/11/16 07:00:55;;;;;;;5.57;5.07;;;;;;;4.81;100.00;94844.72;5074899;28;20054;-62
2022/11/16 07:03:20;;;;;;;6.28;5.78;;;;;;;4.91;100.00;94847.41;5092349;28;20027;-55
2022/11/16 07:05:46;;;;;;;8.80;7.90;;;;;;;4.97;100.00;94846.88;5082428;28;20108;-60
2022/11/16 07:08:11;;;;;;;9.98;7.25;;;;;;;5.02;100.00;94852.53;5091221;28;20060;-59
2022/11/16 07:10:37;;;;;;;10.50;8.88;;;;;;;5.14;100.00;94850.66;5083181;28;20016;-60
2022/11/16 07:13:03;;;;;;;11.77;8.80;;;;;;;5.10;100.00;94856.28;5082706;28;20109;-60
2022/11/16 07:15:29;;;;;;;10.75;7.95;;;;;;;5.08;100.00;94853.81;5082826;28;20153;-60
2022/11/16 07:17:54;;;;;;;9.82;8.63;;;;;;;5.06;100.00;94852.25;5071571;28;20040;-60
2022/11/16 07:20:20;;;;;;;13.68;9.90;;;;;;;5.07;100.00;94844.31;5080412;28;20409;-61
2022/11/16 07:22:45;;;;;;;15.05;11.10;;;;;;;5.05;100.00;94835.81;5091548;28;20017;-68
2022/11/16 07:25:10;;;;;;;15.93;11.05;;;;;;;5.00;100.00;94841.41;5084409;28;20031;-70
2022/11/16 07:27:36;;;;;;;12.32;11.18;;;;;;;5.01;100.00;94850.88;5069643;28;20096;-68
2022/11/16 07:30:01;;;;;;;12.80;11.48;;;;;;;5.03;100.00;94850.75;5087420;28;20028;-69
2022/11/16 07:32:30;;;;;;;12.77;10.75;;;;;;;4.99;100.00;94860.63;5100365;28;20035;-69
2022/11/16 07:34:56;;;;;;;10.25;9.20;;;;;;;4.99;100.00;94859.81;5073150;28;20024;-69
2022/11/16 07:37:21;;;;;;;10.60;9.70;;;;;;;4.94;100.00;94868.00;5073596;28;20043;-70
2022/11/16 07:39:46;;;;;;;12.32;9.35;;;;;;;4.88;100.00;94865.91;5070919;28;20028;-68
2022/11/16 07:42:12;;;;;;;9.43;8.43;;;;;;;4.88;100.00;94871.13;5078346;28;20047;-71
2022/11/16 07:44:38;;;;;;;15.52;10.75;;;;;;;4.88;100.00;94864.13;5073751;28;20111;-60
2022/11/16 07:47:04;;;;;;;13.98;10.57;;;;;;;4.90;100.00;94864.00;5075089;28;20490;-60
2022/11/16 07:49:29;;;;;;;13.00;11.55;;;;;;;4.89;100.00;94870.16;5070746;28;20035;-61
2022/11/16 07:51:54;;;;;;;13.75;12.23;;;;;;;4.89;100.00;94870.16;5072861;28;20028;-61
2022/11/16 07:54:20;;;;;;;13.80;11.05;;;;;;;4.88;100.00;94876.34;5071118;28;20036;-61
2022/11/16 07:56:45;;;;;;;13.93;12.32;;;;;;;4.90;100.00;94877.03;5073918;28;20017;-61
2022/11/16 07:59:10;;;;;;;16.17;12.02;;;;;;;4.92;100.00;94875.13;5078047;28;20039;-60
2022/11/16 08:01:36;;;;;;;16.08;12.82;;;;;;;4.91;100.00;94877.84;5083804;28;20053;-61
2022/11/16 08:04:01;;;;;;;14.93;12.48;;;;;;;4.91;100.00;94883.06;5075911;28;20040;-61
2022/11/16 08:06:29;;;;;;;12.07;10.55;;;;;;;4.91;100.00;94888.28;5078927;28;20020;-61
2022/11/16 08:08:55;;;;;;;17.70;10.32;;;;;;;4.92;100.00;94889.94;5076799;28;20032;-61
2022/11/16 08:11:20;;;;;;;18.30;10.10;;;;;;;4.91;100.00;94885.69;5079716;28;20030;-61
2022/11/16 08:13:45;;;;;;;14.85;9.48;;;;;;;4.94;100.00;94891.47;5081912;28;20363;-61
2022/11/16 08:16:12;;;;;;;12.18;8.75;;;;;;;4.96;100.00;94896.56;5076021;28;20028;-61
2022/11/16 08:18:38;;;;;;;9.27;8.32;;;;;;;4.96;100.00;94893.94;5070858;28;20029;-59
2022/11/16 08:21:06;;;;;;;11.15;8.18;;;;;;;4.93;100.00;94888.97;5085503;28;20103;-61
2022/11/16 08:23:32;;;;;;;11.38;8.88;;;;;;;4.90;100.00;94891.84;5090629;28;20016;-71
2022/11/16 08:26:02;;;;;;;11.18;9.23;;;;;;;4.90;100.00;94894.47;5075348;28;20030;-71
2022/11/16 08:28:28;;;;;;;13.45;10.23;;;;;;;4.94;100.00;94899.31;5070266;28;20036;-71
2022/11/16 08:30:54;;;;;;;15.40;10.23;;;;;;;4.98;100.00;94895.47;5086048;28;20043;-71
2022/11/16 08:33:20;;;;;;;14.85;10.60;;;;;;;5.04;100.00;94899.38;5081580;28;20028;-71
2022/11/16 08:35:47;;;;;;;14.50;9.88;;;;;;;5.20;100.00;94900.72;5086200;28;20089;-71
2022/11/16 08:38:13;;;;;;;12.43;9.25;;;;;;;5.36;100.00;94895.84;5089619;28;20020;-60
2022/11/16 08:40:38;;;;;;;13.05;10.10;;;;;;;5.52;100.00;94895.38;5090098;28;20031;-59
2022/11/16 08:43:04;;;;;;;11.52;9.10;;;;;;;5.68;100.00;94886.22;5089961;28;20016;-62
2022/11/16 08:45:29;;;;;;;9.73;7.70;;;;;;;5.85;100.00;94880.38;5090358;28;20031;-62
2022/11/16 08:47:55;;;;;;;10.18;7.55;;;;;;;6.01;100.00;94882.50;5090356;28;20481;-61
2022/11/16 08:50:20;;;;;;;7.72;7.03;;;;;;;6.22;100.00;94871.16;5083432;28;20588;-61
2022/11/16 08:52:46;;;;;;;8.20;6.97;;;;;;;6.48;100.00;94872.41;5070348;28;20351;-61
2022/11/16 08:55:12;;;;;;;8.32;7.63;;;;;;;6.72;100.00;94869.38;5069973;28;20107;-62
2022/11/16 08:57:38;;;;;;;3.70;3.35;;;;;;;6.94;100.00;94862.19;5070131;28;20016;-71
2022/11/16 09:00:05;;;;;;;4.22;3.10;;;;;;;7.07;100.00;94860.13;5070230;28;20070;-60
2022/11/16 09:02:31;;;;;;;2.28;2.17;;;;;;;7.20;100.00;94867.66;5069956;28;20029;-60
2022/11/16 09:04:56;;;;;;;2.38;2.13;;;;;;;7.32;100.00;94868.31;5070254;28;20062;-60
2022/11/16 09:07:22;;;;;;;2.47;2.22;;;;;;;7.40;100.00;94860.56;5070586;28;20024;-59
2022/11/16 09:09:47;;;;;;;3.20;2.33;;;;;;;7.45;100.00;94861.00;5070986;28;20063;-59
2022/11/16 09:12:13;;;;;;;2.70;2.47;;;;;;;7.53;100.00;94847.19;5071857;28;20024;-59
2022/11/16 09:14:38;;;;;;;2.60;2.40;;;;;;;7.70;100.00;94837.72;5083072;28;20035;-60
2022/11/16 09:17:04;;;;;;;6.75;6.15;;;;;;;7.82;100.00;94834.91;5069876;28;20401;-60
2022/11/16 09:19:29;;;;;;;7.22;6.72;;;;;;;8.04;100.00;94831.06;5083041;28;20038;-55
2022/11/16 09:21:55;;;;;;;3.97;3.67;;;;;;;8.24;100.00;94831.75;5070880;28;20024;-55
2022/11/16 09:24:20;;;;;;;2.85;2.65;;;;;;;8.37;100.00;94822.72;5071868;28;20107;-54
2022/11/16 09:26:45;;;;;;;2.42;2.28;;;;;;;8.45;100.00;94825.41;5070844;28;20021;-55
2022/11/16 09:29:13;;;;;;;2.55;2.35;;;;;;;8.71;100.00;94830.75;5072203;28;20490;-53
2022/11/16 09:31:39;;;;;;;2.70;2.50;;;;;;;8.88;100.00;94834.31;5070481;28;20131;-54
2022/11/16 09:34:05;;;;;;;2.35;2.22;;;;;;;9.04;100.00;94840.69;5071971;28;20560;-55
2022/11/16 09:36:30;;;;;;;2.30;2.08;;;;;;;9.22;100.00;94851.13;5071018;28;20028;-57
2022/11/16 09:38:57;;;;;;;2.03;1.60;;;;;;;9.22;100.00;94851.13;5071963;28;20032;-61
2022/11/16 09:42:00;;;;;;;2.58;2.20;;;;;;;9.35;100.00;94855.16;5082312;28;20109;-61
2022/11/16 09:44:43;;;;;;;2.92;2.33;;;;;;;9.55;100.00;94867.09;5081016;28;20028;-61
2022/11/16 09:47:48;;;;;;;1.90;1.80;;;;;;;9.63;100.00;94874.22;5089327;28;20493;-61
2022/11/16 09:50:43;;;;;;;3.00;2.10;;;;;;;9.63;100.00;94874.22;5063433;28;20036;-61
2022/11/16 09:53:15;;;;;;;2.40;2.20;;;;;;;9.70;100.00;94880.47;5089282;28;20028;-61
2022/11/16 09:55:49;;;;;;;5.72;2.10;;;;;;;9.80;100.00;94883.00;5073630;28;20553;-56
2022/11/16 09:58:22;;;;;;;1.95;1.85;;;;;;;9.79;100.00;94883.97;5073915;28;20103;-61
2022/11/16 10:00:55;;;;;;;2.00;1.90;;;;;;;9.91;100.00;94891.56;5073458;28;20024;-61
2022/11/16 10:03:20;;;;;;;2.15;2.00;;;;;;;9.88;100.00;94900.63;5073439;28;20016;-61
2022/11/16 10:06:04;;;;;;;4.18;2.05;;;;;;;9.86;100.00;94892.06;5073598;28;20032;-61
2022/11/16 10:08:48;;;;;;;2.40;2.20;;;;;;;9.91;100.00;94888.94;5083348;28;20032;-61
2022/11/16 10:11:58;;;;;;;2.85;2.50;;;;;;;10.05;100.00;94888.34;5074181;28;20082;-62
2022/11/16 10:14:48;;;;;;;4.20;2.10;;;;;;;10.27;100.00;94881.69;5043689;28;20100;-67
2022/11/16 10:17:40;;;;;;;3.40;1.70;;;;;;;10.23;100.00;94893.50;5031007;28;20073;-55
2022/11/16 10:20:33;;;;;;;3.28;2.38;;;;;;;10.00;100.00;94874.88;5066748;28;20135;-59
2022/11/16 10:23:04;;;;;;;3.92;2.47;;;;;;;9.89;100.00;94868.09;5073209;28;20040;-59
2022/11/16 10:25:59;;;;;;;2.70;2.50;;;;;;;9.78;100.00;94868.34;5073408;28;20033;-59
2022/11/16 10:28:43;;;;;;;2.70;2.50;;;;;;;9.63;100.00;94861.06;5069596;28;20074;-59
2022/11/16 10:31:27;;;;;;;3.55;3.08;;;;;;;9.75;100.00;94849.28;5072944;28;20128;-59
2022/11/16 10:33:56;;;;;;;6.60;2.67;;;;;;;9.94;100.00;94852.66;5073555;28;20043;-61
2022/11/16 10:36:26;;;;;;;2.90;2.67;;;;;;;10.16;100.00;94847.78;5092987;28;20035;-72
2022/11/16 10:38:55;;;;;;;2.72;2.53;;;;;;;10.42;100.00;94846.91;5090998;28;20032;-61
2022/11/16 10:41:34;;;;;;;1.95;1.75;;;;;;;10.38;100.00;94845.53;5085449;28;20027;-61
2022/11/16 10:44:01;;;;;;;1.73;1.40;;;;;;;10.31;100.00;94845.34;5092795;28;20016;-61
2022/11/16 10:46:34;;;;;;;1.63;1.50;;;;;;;10.34;100.00;94838.97;5092215;28;20027;-61
2022/11/16 10:49:29;;;;;;;3.03;1.50;;;;;;;10.38;100.00;94833.19;5092476;28;20028;-61
2022/11/16 10:51:55;;;;;;;1.83;1.60;;;;;;;10.40;100.00;94825.16;5092226;28;20043;-60
2022/11/16 10:54:20;;;;;;;1.92;1.80;;;;;;;10.44;100.00;94824.72;5079233;28;20493;-72
2022/11/16 10:56:48;;;;;;;3.17;2.08;;;;;;;10.37;100.00;94813.13;5092234;28;20032;-60
2022/11/16 10:59:18;;;;;;;2.97;1.90;;;;;;;10.28;100.00;94812.31;5091392;28;20028;-60
2022/11/16 11:01:56;;;;;;;4.03;1.50;;;;;;;10.23;100.00;94816.41;5079539;28;20119;-60
2022/11/16 11:04:25;;;;;;;1.40;1.40;;;;;;;10.30;100.00;94820.88;5091405;28;20436;-59
2022/11/16 11:06:53;;;;;;;1.90;1.80;;;;;;;10.29;100.00;94816.59;5092147;28;20484;-60
2022/11/16 11:09:22;;;;;;;2.50;2.30;;;;;;;10.34;100.00;94805.56;5091226;28;20028;-59
2022/11/16 11:15:26;;;;;;;2.20;2.10;;;;;;;10.82;100.00;94807.59;5091846;28;20085;-63
2022/11/16 11:18:16;;;;;;;2.38;2.17;;;;;;;10.95;100.00;94802.66;5073022;28;20039;-63
2022/11/16 11:20:44;;;;;;;3.42;3.13;;;;;;;11.07;100.00;94803.16;5072071;28;20022;-63
2022/11/16 11:23:24;;;;;;;2.60;2.42;;;;;;;11.35;100.00;94792.22;5072245;28;20026;-63
2022/11/16 11:25:58;;;;;;;1.80;1.70;;;;;;;11.33;100.00;94791.56;5084795;28;20019;-63
2022/11/16 11:28:25;;;;;;;2.78;1.70;;;;;;;11.23;100.00;94777.78;5079623;28;20490;-62
2022/11/16 11:31:24;;;;;;;1.83;1.73;;;;;;;11.21;100.00;94779.75;5090763;28;20146;-55
2022/11/16 11:33:52;;;;;;;3.85;3.45;;;;;;;11.29;100.00;94772.66;5076757;28;20044;-60
2022/11/16 11:36:21;;;;;;;4.15;2.60;;;;;;;11.29;100.00;94762.13;5091507;28;20067;-55
2022/11/16 11:38:58;;;;;;;2.30;2.13;;;;;;;11.30;100.00;94771.66;5090936;28;20028;-55
2022/11/16 11:41:23;;;;;;;1.40;1.30;;;;;;;11.33;94.97;94765.22;5091797;28;20024;-54
2022/11/16 11:44:04;;;;;;;2.22;1.67;;;;;;;11.37;96.79;94763.88;5071435;28;20078;-56
2022/11/16 11:46:34;;;;;;;1.92;1.30;;;;;;;11.32;96.92;94750.41;5073631;28;20024;-55
2022/11/16 11:49:11;;;;;;;1.73;1.63;;;;;;;11.45;98.85;94740.16;5072566;28;20024;-54
2022/11/16 11:51:41;;;;;;;1.65;1.55;;;;;;;11.56;98.52;94740.75;5055039;28;20025;-59
2022/11/16 11:54:34;;;;;;;1.33;1.23;;;;;;;11.58;97.16;94731.69;5073062;28;20031;-68
2022/11/16 11:57:01;;;;;;;1.52;1.30;;;;;;;11.57;98.59;94726.56;5071498;28;20521;-67
2022/11/16 11:59:27;;;;;;;1.58;1.48;;;;;;;11.60;97.50;94708.63;5072558;28;20028;-67
2022/11/16 12:02:05;;;;;;;1.40;1.30;;;;;;;11.80;94.10;94704.72;5071895;28;20189;-67
2022/11/16 12:04:52;;;;;;;2.25;1.25;;;;;;;11.71;94.84;94702.13;5086962;28;20028;-67
2022/11/16 12:07:26;;;;;;;1.70;1.60;;;;;;;11.67;94.05;94700.00;5090981;28;20109;-67
2022/11/16 12:10:10;;;;;;;1.10;1.10;;;;;;;11.62;97.17;94697.91;5072687;28;20480;-61
2022/11/16 12:12:48;;;;;;;1.10;1.10;;;;;;;11.36;98.68;94691.09;5089673;28;20020;-59
2022/11/16 12:15:37;;;;;;;1.30;1.20;;;;;;;11.35;98.56;94678.91;5084237;28;20039;-59
2022/11/16 12:18:33;;;;;;;1.60;1.23;;;;;;;11.40;96.28;94676.59;5052943;28;20436;-59
2022/11/16 12:21:16;;;;;;;1.92;1.50;;;;;;;11.43;96.48;94670.16;5071319;28;20036;-59
2022/11/16 12:23:54;;;;;;;1.23;1.23;;;;;;;11.27;95.91;94671.03;5080841;28;20024;-59
2022/11/16 12:26:38;;;;;;;2.92;1.20;;;;;;;11.31;96.78;94667.06;5073320;28;20525;-59
2022/11/16 12:29:22;;;;;;;1.10;1.10;;;;;;;11.34;95.53;94655.38;5071874;28;20436;-54
2022/11/16 12:31:56;;;;;;;1.80;1.50;;;;;;;11.24;96.11;94659.03;5071027;28;20063;-61